sensor_id;sensor_type;location;lat;lon;timestamp;pressure;altitude;pressure_sealevel;temperature;humidity
75656;BME280;64252;51.094;13.714;2023-05-10T00:02:08;99936.31;;;11.70;59.18
75656;BME280;64252;51.094;13.714;2023-05-10T00:04:34;99933.84;;;11.86;58.84
75656;BME280;64252;51.094;13.714;2023-05-10T00:06:59;99933.47;;;11.81;59.72
75656;BME280;64252;51.094;13.714;2023-05-10T00:09:25;99934.69;;;11.66;60.67
75656;BME280;64252;51.094;13.714;2023-05-10T00:11:50;99921.78;;;11.58;59.65
75656;BME280;64252;51.094;13.714;2023-05-10T00:14:16;99918.97;;;11.58;60.83
75656;BME280;64252;51.094;13.714;2023-05-10T00:16:42;99923.81;;;11.57;60.02
75656;BME280;64252;51.094;13.714;2023-05-10T00:19:07;99925.44;;;11.51;60.94
75656;BME280;64252;51.094;13.714;2023-05-10T00:21:33;99920.97;;;11.61;59.41
75656;BME280;64252;51.094;13.714;2023-05-10T00:23:59;99931.13;;;11.44;61.09
75656;BME280;64252;51.094;13.714;2023-05-10T00:26:25;99929.06;;;11.44;59.70
75656;BME280;64252;51.094;13.714;2023-05-10T00:28:54;99929.47;;;11.50;60.59
75656;BME280;64252;51.094;13.714;2023-05-10T00:31:19;99922.22;;;11.42;61.28
75656;BME280;64252;51.094;13.714;2023-05-10T00:33:45;99916.56;;;11.35;60.62
75656;BME280;64252;51.094;13.714;2023-05-10T00:36:10;99907.66;;;11.51;60.60
75656;BME280;64252;51.094;13.714;2023-05-10T00:38:37;99908.91;;;11.42;60.18
75656;BME280;64252;51.094;13.714;2023-05-10T00:41:03;99918.19;;;11.36;60.76
75656;BME280;64252;51.094;13.714;2023-05-10T00:43:32;99908.91;;;11.28;61.31
75656;BME280;64252;51.094;13.714;2023-05-10T00:45:58;99912.56;;;11.15;60.69
75656;BME280;64252;51.094;13.714;2023-05-10T00:48:24;99896.41;;;11.22;60.91
75656;BME280;64252;51.094;13.714;2023-05-10T00:50:50;99895.59;;;11.29;60.84
75656;BME280;64252;51.094;13.714;2023-05-10T00:53:15;99897.22;;;11.16;61.37
75656;BME280;64252;51.094;13.714;2023-05-10T00:55:42;99902.88;;;11.19;60.76
75656;BME280;64252;51.094;13.714;2023-05-10T00:58:07;99900.44;;;11.21;60.90
75656;BME280;64252;51.094;13.714;2023-05-10T01:00:33;99898.00;;;11.16;61.91
75656;BME280;64252;51.094;13.714;2023-05-10T01:03:00;99902.06;;;11.08;61.29
75656;BME280;64252;51.094;13.714;2023-05-10T01:05:26;99902.09;;;11.01;61.54
75656;BME280;64252;51.094;13.714;2023-05-10T01:07:52;99899.25;;;10.94;61.92
75656;BME280;64252;51.094;13.714;2023-05-10T01:10:19;99897.63;;;10.93;61.27
75656;BME280;64252;51.094;13.714;2023-05-10T01:12:46;99901.28;;;11.00;60.56
75656;BME280;64252;51.094;13.714;2023-05-10T01:15:14;99903.69;;;10.95;60.51
75656;BME280;64252;51.094;13.714;2023-05-10T01:17:42;99900.44;;;10.79;61.81
75656;BME280;64252;51.094;13.714;2023-05-10T01:20:09;99896.41;;;10.80;62.01
75656;BME280;64252;51.094;13.714;2023-05-10T01:33:48;99894.78;;;10.57;61.92
75656;BME280;64252;51.094;13.714;2023-05-10T01:36:27;99891.56;;;10.77;62.31
75656;BME280;64252;51.094;13.714;2023-05-10T01:39:11;99883.50;;;10.68;61.36
75656;BME280;64252;51.094;13.714;2023-05-10T01:47:31;99885.13;;;10.59;61.30
75656;BME280;64252;51.094;13.714;2023-05-10T01:50:02;99886.28;;;10.50;62.07
75656;BME280;64252;51.094;13.714;2023-05-10T01:52:33;99888.31;;;10.50;62.14
75656;BME280;64252;51.094;13.714;2023-05-10T01:55:06;99885.09;;;10.51;61.91
75656;BME280;64252;51.094;13.714;2023-05-10T01:57:35;99883.06;;;10.41;62.32
75656;BME280;64252;51.094;13.714;2023-05-10T02:00:03;99881.81;;;10.28;63.32
75656;BME280;64252;51.094;13.714;2023-05-10T02:02:42;99886.25;;;10.29;63.36
75656;BME280;64252;51.094;13.714;2023-05-10T02:05:12;99889.47;;;10.24;63.27
75656;BME280;64252;51.094;13.714;2023-05-10T02:07:39;99885.84;;;10.27;63.32
75656;BME280;64252;51.094;13.714;2023-05-10T02:10:07;99874.19;;;10.36;63.09
75656;BME280;64252;51.094;13.714;2023-05-10T02:12:41;99878.59;;;10.33;63.81
75656;BME280;64252;51.094;13.714;2023-05-10T02:15:10;99880.19;;;10.20;64.38
75656;BME280;64252;51.094;13.714;2023-05-10T02:17:37;99877.75;;;10.22;64.50
75656;BME280;64252;51.094;13.714;2023-05-10T02:20:07;99873.75;;;10.23;63.74
75656;BME280;64252;51.094;13.714;2023-05-10T02:22:35;99875.78;;;10.26;64.14
75656;BME280;64252;51.094;13.714;2023-05-10T02:25:02;99866.91;;;10.21;63.08
75656;BME280;64252;51.094;13.714;2023-05-10T02:27:29;99862.44;;;10.16;64.39
75656;BME280;64252;51.094;13.714;2023-05-10T02:29:56;99862.44;;;10.16;64.45
75656;BME280;64252;51.094;13.714;2023-05-10T02:32:24;99872.94;;;10.19;63.13
75656;BME280;64252;51.094;13.714;2023-05-10T02:34:52;99871.22;;;10.00;64.40
75656;BME280;64252;51.094;13.714;2023-05-10T02:37:21;99876.88;;;9.97;65.26
75656;BME280;64252;51.094;13.714;2023-05-10T02:39:51;99872.03;;;9.97;64.11
75656;BME280;64252;51.094;13.714;2023-05-10T02:42:24;99873.25;;;10.00;64.54
75656;BME280;64252;51.094;13.714;2023-05-10T02:44:53;99870.41;;;9.96;64.93
75656;BME280;64252;51.094;13.714;2023-05-10T02:47:19;99866.41;;;10.01;64.65
75656;BME280;64252;51.094;13.714;2023-05-10T02:49:45;99876.88;;;9.97;64.62
75656;BME280;64252;51.094;13.714;2023-05-10T02:52:15;99863.16;;;9.99;64.67
75656;BME280;64252;51.094;13.714;2023-05-10T02:54:49;99869.19;;;9.94;64.76
75656;BME280;64252;51.094;13.714;2023-05-10T02:57:17;99873.63;;;9.88;65.93
75656;BME280;64252;51.094;13.714;2023-05-10T02:59:47;99863.09;;;9.81;65.61
75656;BME280;64252;51.094;13.714;2023-05-10T03:02:13;99870.00;;;9.91;65.98
75656;BME280;64252;51.094;13.714;2023-05-10T03:04:38;99870.81;;;9.95;65.52
75656;BME280;64252;51.094;13.714;2023-05-10T03:07:04;99865.22;;;10.09;64.62
75656;BME280;64252;51.094;13.714;2023-05-10T03:09:31;99873.66;;;10.09;65.22
75656;BME280;64252;51.094;13.714;2023-05-10T03:12:30;99876.06;;;10.03;65.29
75656;BME280;64252;51.094;13.714;2023-05-10T03:15:03;99870.41;;;9.96;65.83
75656;BME280;64252;51.094;13.714;2023-05-10T03:20:14;99869.59;;;9.96;65.50
75656;BME280;64252;51.094;13.714;2023-05-10T03:22:45;99865.59;;;9.97;65.37
75656;BME280;64252;51.094;13.714;2023-05-10T03:25:12;99864.81;;;10.14;64.85
75656;BME280;64252;51.094;13.714;2023-05-10T03:27:43;99866.09;;;10.24;64.93
75656;BME280;64252;51.094;13.714;2023-05-10T03:30:11;99857.19;;;10.18;64.70
75656;BME280;64252;51.094;13.714;2023-05-10T03:32:37;99857.63;;;10.27;64.75
75656;BME280;64252;51.094;13.714;2023-05-10T03:35:10;99857.19;;;10.18;64.65
75656;BME280;64252;51.094;13.714;2023-05-10T03:37:37;99851.97;;;10.24;64.74
75656;BME280;64252;51.094;13.714;2023-05-10T03:40:03;99861.22;;;10.17;65.89
75656;BME280;64252;51.094;13.714;2023-05-10T03:42:31;99861.56;;;10.08;65.66
75656;BME280;64252;51.094;13.714;2023-05-10T03:44:57;99862.38;;;10.02;66.51
75656;BME280;64252;51.094;13.714;2023-05-10T03:47:23;99862.00;;;10.07;66.19
75656;BME280;64252;51.094;13.714;2023-05-10T03:49:49;99858.41;;;10.17;65.52
75656;BME280;64252;51.094;13.714;2023-05-10T03:52:14;99866.03;;;10.13;65.39
75656;BME280;64252;51.094;13.714;2023-05-10T03:54:40;99874.47;;;10.13;66.25
75656;BME280;64252;51.094;13.714;2023-05-10T03:57:06;99873.69;;;10.12;66.18
75656;BME280;64252;51.094;13.714;2023-05-10T03:59:32;99880.97;;;10.17;66.88
75656;BME280;64252;51.094;13.714;2023-05-10T04:01:57;99885.84;;;10.27;65.74
75656;BME280;64252;51.094;13.714;2023-05-10T04:04:23;99883.81;;;10.21;66.17
75656;BME280;64252;51.094;13.714;2023-05-10T04:06:49;99880.19;;;10.24;65.61
75656;BME280;64252;51.094;13.714;2023-05-10T04:09:15;99888.28;;;10.32;64.65
75656;BME280;64252;51.094;13.714;2023-05-10T04:11:41;99893.13;;;10.35;64.89
75656;BME280;64252;51.094;13.714;2023-05-10T04:14:07;99874.59;;;10.38;65.18
75656;BME280;64252;51.094;13.714;2023-05-10T04:16:33;99874.59;;;10.41;65.33
75656;BME280;64252;51.094;13.714;2023-05-10T04:18:58;99879.44;;;10.51;64.63
75656;BME280;64252;51.094;13.714;2023-05-10T04:21:25;99885.91;;;10.52;64.62
75656;BME280;64252;51.094;13.714;2023-05-10T04:23:50;99877.84;;;10.65;65.21
75656;BME280;64252;51.094;13.714;2023-05-10T04:26:16;99868.97;;;10.66;64.96
75656;BME280;64252;51.094;13.714;2023-05-10T04:28:42;99872.59;;;10.70;64.13
75656;BME280;64252;51.094;13.714;2023-05-10T04:31:09;99873.84;;;10.73;64.44
75656;BME280;64252;51.094;13.714;2023-05-10T04:33:35;99876.25;;;10.78;64.21
75656;BME280;64252;51.094;13.714;2023-05-10T04:36:01;99867.38;;;10.86;64.04
75656;BME280;64252;51.094;13.714;2023-05-10T04:38:27;99873.44;;;10.92;63.60
75656;BME280;64252;51.094;13.714;2023-05-10T04:40:53;99881.09;;;10.95;63.82
75656;BME280;64252;51.094;13.714;2023-05-10T04:43:19;99866.53;;;11.04;63.55
75656;BME280;64252;51.094;13.714;2023-05-10T04:45:48;99866.53;;;11.07;63.45
75656;BME280;64252;51.094;13.714;2023-05-10T04:48:15;99860.88;;;11.14;62.16
75656;BME280;64252;51.094;13.714;2023-05-10T04:50:41;99859.66;;;11.22;62.62
75656;BME280;64252;51.094;13.714;2023-05-10T04:53:06;99863.28;;;11.26;62.48
75656;BME280;64252;51.094;13.714;2023-05-10T04:55:32;99857.63;;;11.37;62.32
75656;BME280;64252;51.094;13.714;2023-05-10T04:57:57;99852.72;;;11.44;62.72
75656;BME280;64252;51.094;13.714;2023-05-10T05:00:24;99856.75;;;11.54;61.76
75656;BME280;64252;51.094;13.714;2023-05-10T05:02:50;99864.00;;;11.59;61.87
75656;BME280;64252;51.094;13.714;2023-05-10T05:05:16;99870.47;;;11.66;61.81
75656;BME280;64252;51.094;13.714;2023-05-10T05:07:42;99857.91;;;11.78;61.72
75656;BME280;64252;51.094;13.714;2023-05-10T05:10:08;99855.44;;;11.87;61.09
75656;BME280;64252;51.094;13.714;2023-05-10T05:12:34;99850.38;;;13.67;56.07
75656;BME280;64252;51.094;13.714;2023-05-10T05:15:02;99849.84;;;15.79;50.66
75656;BME280;64252;51.094;13.714;2023-05-10T05:17:30;99840.63;;;18.31;44.56
75656;BME280;64252;51.094;13.714;2023-05-10T05:19:55;99846.50;;;19.38;42.49
75656;BME280;64252;51.094;13.714;2023-05-10T05:22:21;99846.53;;;20.37;40.82
75656;BME280;64252;51.094;13.714;2023-05-10T05:24:56;99841.63;;;21.18;38.75
75656;BME280;64252;51.094;13.714;2023-05-10T05:27:24;99834.34;;;22.08;37.26
75656;BME280;64252;51.094;13.714;2023-05-10T05:29:54;99838.66;;;22.03;36.21
75656;BME280;64252;51.094;13.714;2023-05-10T05:32:20;99839.47;;;23.06;35.66
75656;BME280;64252;51.094;13.714;2023-05-10T05:34:46;99833.09;;;23.02;35.35
75656;BME280;64252;51.094;13.714;2023-05-10T05:37:15;99831.59;;;22.83;34.96
75656;BME280;64252;51.094;13.714;2023-05-10T05:39:42;99835.59;;;22.16;35.60
75656;BME280;64252;51.094;13.714;2023-05-10T05:42:12;99834.13;;;22.29;35.87
75656;BME280;64252;51.094;13.714;2023-05-10T05:44:39;99831.59;;;22.83;35.40
75656;BME280;64252;51.094;13.714;2023-05-10T05:47:05;99834.59;;;22.37;35.97
75656;BME280;64252;51.094;13.714;2023-05-10T05:49:32;99831.19;;;22.48;36.19
75656;BME280;64252;51.094;13.714;2023-05-10T05:52:03;99834.81;;;22.75;35.34
75656;BME280;64252;51.094;13.714;2023-05-10T05:54:33;99832.53;;;23.36;35.95
75656;BME280;64252;51.094;13.714;2023-05-10T05:57:00;99835.19;;;23.25;35.52
75656;BME280;64252;51.094;13.714;2023-05-10T05:59:26;99846.19;;;23.03;37.16
75656;BME280;64252;51.094;13.714;2023-05-10T06:01:51;99846.41;;;20.19;39.24
75656;BME280;64252;51.094;13.714;2023-05-10T06:04:18;99848.88;;;18.79;42.47
75656;BME280;64252;51.094;13.714;2023-05-10T06:06:44;99850.13;;;17.99;44.74
75656;BME280;64252;51.094;13.714;2023-05-10T06:09:10;99846.03;;;17.26;47.17
75656;BME280;64252;51.094;13.714;2023-05-10T06:11:36;99853.72;;;16.97;47.60
75656;BME280;64252;51.094;13.714;2023-05-10T06:14:02;99846.22;;;17.03;47.57
75656;BME280;64252;51.094;13.714;2023-05-10T06:16:30;99862.22;;;17.62;46.09
75656;BME280;64252;51.094;13.714;2023-05-10T06:18:55;99852.06;;;17.28;47.41
75656;BME280;64252;51.094;13.714;2023-05-10T06:21:21;99856.97;;;16.63;48.38
75656;BME280;64252;51.094;13.714;2023-05-10T06:23:47;99861.97;;;16.39;49.82
75656;BME280;64252;51.094;13.714;2023-05-10T06:26:13;99861.44;;;16.28;50.23
75656;BME280;64252;51.094;13.714;2023-05-10T06:28:39;99866.53;;;16.53;50.79
75656;BME280;64252;51.094;13.714;2023-05-10T06:31:06;99866.16;;;16.35;49.51
75656;BME280;64252;51.094;13.714;2023-05-10T06:33:32;99863.00;;;16.29;50.26
75656;BME280;64252;51.094;13.714;2023-05-10T06:35:58;99856.09;;;16.30;49.34
75656;BME280;64252;51.094;13.714;2023-05-10T06:38:24;99864.81;;;16.39;48.91
75656;BME280;64252;51.094;13.714;2023-05-10T06:40:50;99863.50;;;16.63;49.08
75656;BME280;64252;51.094;13.714;2023-05-10T06:43:16;99864.63;;;17.92;46.73
75656;BME280;64252;51.094;13.714;2023-05-10T06:45:41;99853.16;;;19.69;42.46
75656;BME280;64252;51.094;13.714;2023-05-10T06:48:07;99855.69;;;21.34;40.41
75656;BME280;64252;51.094;13.714;2023-05-10T06:50:33;99852.88;;;21.03;39.54
75656;BME280;64252;51.094;13.714;2023-05-10T06:52:59;99855.06;;;21.66;39.07
75656;BME280;64252;51.094;13.714;2023-05-10T06:55:25;99847.09;;;22.16;38.62
75656;BME280;64252;51.094;13.714;2023-05-10T06:57:51;99848.91;;;22.64;36.28
75656;BME280;64252;51.094;13.714;2023-05-10T07:00:18;99851.56;;;22.26;38.27
75656;BME280;64252;51.094;13.714;2023-05-10T07:02:44;99847.78;;;23.04;37.84
75656;BME280;64252;51.094;13.714;2023-05-10T07:05:10;99851.13;;;23.11;36.91
75656;BME280;64252;51.094;13.714;2023-05-10T07:07:36;99852.03;;;23.17;36.13
75656;BME280;64252;51.094;13.714;2023-05-10T07:10:02;99852.91;;;23.33;36.50
75656;BME280;64252;51.094;13.714;2023-05-10T07:12:27;99849.38;;;23.61;37.54
75656;BME280;64252;51.094;13.714;2023-05-10T07:14:53;99859.03;;;23.73;35.15
75656;BME280;64252;51.094;13.714;2023-05-10T07:17:19;99857.09;;;23.55;35.94
75656;BME280;64252;51.094;13.714;2023-05-10T07:19:44;99851.91;;;23.83;35.96
75656;BME280;64252;51.094;13.714;2023-05-10T07:22:10;99851.56;;;23.19;35.37
75656;BME280;64252;51.094;13.714;2023-05-10T07:24:35;99850.28;;;22.87;37.27
75656;BME280;64252;51.094;13.714;2023-05-10T07:27:01;99844.69;;;22.84;36.64
75656;BME280;64252;51.094;13.714;2023-05-10T07:29:27;99841.88;;;22.56;36.39
75656;BME280;64252;51.094;13.714;2023-05-10T07:31:54;99844.00;;;22.89;37.77
75656;BME280;64252;51.094;13.714;2023-05-10T07:34:19;99842.66;;;23.32;35.96
75656;BME280;64252;51.094;13.714;2023-05-10T07:36:45;99847.53;;;22.32;36.38
75656;BME280;64252;51.094;13.714;2023-05-10T07:39:12;99854.00;;;22.79;37.19
75656;BME280;64252;51.094;13.714;2023-05-10T07:41:37;99852.69;;;21.92;38.12
75656;BME280;64252;51.094;13.714;2023-05-10T07:44:05;99865.75;;;20.89;42.03
75656;BME280;64252;51.094;13.714;2023-05-10T07:46:31;99868.78;;;19.90;42.73
75656;BME280;64252;51.094;13.714;2023-05-10T07:48:56;99856.31;;;19.62;43.96
75656;BME280;64252;51.094;13.714;2023-05-10T07:51:22;99856.78;;;20.87;42.03
75656;BME280;64252;51.094;13.714;2023-05-10T07:53:48;99854.50;;;20.73;42.24
75656;BME280;64252;51.094;13.714;2023-05-10T07:56:39;99860.56;;;19.57;45.18
75656;BME280;64252;51.094;13.714;2023-05-10T07:59:09;99860.00;;;19.37;44.98
75656;BME280;64252;51.094;13.714;2023-05-10T08:01:36;99848.44;;;18.68;45.38
75656;BME280;64252;51.094;13.714;2023-05-10T08:04:01;99860.22;;;18.58;46.02
75656;BME280;64252;51.094;13.714;2023-05-10T08:06:27;99861.47;;;18.69;46.44
75656;BME280;64252;51.094;13.714;2023-05-10T08:08:55;99861.59;;;18.66;46.33
75656;BME280;64252;51.094;13.714;2023-05-10T08:11:23;99865.94;;;18.83;47.96
75656;BME280;64252;51.094;13.714;2023-05-10T08:13:50;99851.75;;;18.67;45.61
75656;BME280;64252;51.094;13.714;2023-05-10T08:16:16;99858.84;;;18.75;46.50
75656;BME280;64252;51.094;13.714;2023-05-10T08:18:44;99854.50;;;18.83;45.81
75656;BME280;64252;51.094;13.714;2023-05-10T08:21:10;99850.56;;;19.02;45.70
75656;BME280;64252;51.094;13.714;2023-05-10T08:23:36;99856.19;;;18.93;44.98
75656;BME280;64252;51.094;13.714;2023-05-10T08:26:02;99863.75;;;19.00;46.20
75656;BME280;64252;51.094;13.714;2023-05-10T08:28:28;99848.41;;;19.06;45.73
75656;BME280;64252;51.094;13.714;2023-05-10T08:30:54;99858.81;;;19.00;45.46
75656;BME280;64252;51.094;13.714;2023-05-10T08:33:19;99855.88;;;18.78;45.01
75656;BME280;64252;51.094;13.714;2023-05-10T08:35:45;99862.72;;;19.06;45.66
75656;BME280;64252;51.094;13.714;2023-05-10T08:38:11;99858.78;;;19.25;44.33
75656;BME280;64252;51.094;13.714;2023-05-10T08:40:40;99861.97;;;19.27;45.06
75656;BME280;64252;51.094;13.714;2023-05-10T08:43:09;99863.91;;;19.43;45.97
75656;BME280;64252;51.094;13.714;2023-05-10T08:45:40;99867.50;;;19.69;44.10
75656;BME280;64252;51.094;13.714;2023-05-10T08:48:10;99874.25;;;19.75;44.60
75656;BME280;64252;51.094;13.714;2023-05-10T08:50:37;99876.59;;;19.89;45.93
75656;BME280;64252;51.094;13.714;2023-05-10T08:53:06;99878.25;;;19.99;43.87
75656;BME280;64252;51.094;13.714;2023-05-10T08:55:32;99884.38;;;19.89;44.74
75656;BME280;64252;51.094;13.714;2023-05-10T08:57:59;99892.09;;;19.79;43.81
75656;BME280;64252;51.094;13.714;2023-05-10T09:00:26;99890.81;;;20.14;44.50
75656;BME280;64252;51.094;13.714;2023-05-10T09:02:53;99885.59;;;20.00;45.23
75656;BME280;64252;51.094;13.714;2023-05-10T09:05:19;99892.06;;;20.13;46.20
75656;BME280;64252;51.094;13.714;2023-05-10T09:07:44;99897.50;;;20.33;44.49
75656;BME280;64252;51.094;13.714;2023-05-10T09:10:11;99902.34;;;20.24;43.42
75656;BME280;64252;51.094;13.714;2023-05-10T09:12:38;99898.53;;;20.05;43.17
75656;BME280;64252;51.094;13.714;2023-05-10T09:15:05;99892.00;;;20.04;44.31
75656;BME280;64252;51.094;13.714;2023-05-10T09:17:32;99895.84;;;20.54;45.01
75656;BME280;64252;51.094;13.714;2023-05-10T09:19:59;99895.53;;;20.52;43.29
75656;BME280;64252;51.094;13.714;2023-05-10T09:22:26;99894.44;;;20.58;42.66
75656;BME280;64252;51.094;13.714;2023-05-10T09:25:12;99892.09;;;20.66;42.62
75656;BME280;64252;51.094;13.714;2023-05-10T09:27:40;99893.97;;;20.60;43.05
75656;BME280;64252;51.094;13.714;2023-05-10T09:30:06;99896.94;;;20.78;43.84
75656;BME280;64252;51.094;13.714;2023-05-10T09:32:40;99900.69;;;20.57;43.05
75656;BME280;64252;51.094;13.714;2023-05-10T09:35:11;99898.16;;;20.37;44.00
75656;BME280;64252;51.094;13.714;2023-05-10T09:37:41;99897.13;;;20.53;42.92
75656;BME280;64252;51.094;13.714;2023-05-10T09:40:08;99897.84;;;20.66;43.77
75656;BME280;64252;51.094;13.714;2023-05-10T09:42:40;99897.97;;;20.63;45.01
75656;BME280;64252;51.094;13.714;2023-05-10T09:45:06;99895.91;;;20.63;42.97
75656;BME280;64252;51.094;13.714;2023-05-10T09:47:33;99900.72;;;20.66;43.54
75656;BME280;64252;51.094;13.714;2023-05-10T09:49:59;99892.53;;;20.55;43.37
75656;BME280;64252;51.094;13.714;2023-05-10T09:55:11;99897.59;;;20.51;44.34
75656;BME280;64252;51.094;13.714;2023-05-10T09:57:37;99898.56;;;20.79;44.59
75656;BME280;64252;51.094;13.714;2023-05-10T10:00:04;99892.03;;;20.88;42.90
75656;BME280;64252;51.094;13.714;2023-05-10T10:02:39;99901.69;;;20.72;44.32
75656;BME280;64252;51.094;13.714;2023-05-10T10:05:06;99894.19;;;21.06;43.10
75656;BME280;64252;51.094;13.714;2023-05-10T10:07:32;99896.41;;;21.01;43.28
75656;BME280;64252;51.094;13.714;2023-05-10T10:09:58;99899.19;;;20.83;43.18
75656;BME280;64252;51.094;13.714;2023-05-10T10:12:24;99898.94;;;20.90;43.91
75656;BME280;64252;51.094;13.714;2023-05-10T10:14:50;99890.59;;;20.83;42.67
75656;BME280;64252;51.094;13.714;2023-05-10T10:17:17;99887.16;;;21.07;43.26
75656;BME280;64252;51.094;13.714;2023-05-10T10:19:43;99884.34;;;21.16;43.90
75656;BME280;64252;51.094;13.714;2023-05-10T10:22:09;99887.16;;;21.37;43.16
75656;BME280;64252;51.094;13.714;2023-05-10T10:24:38;99886.59;;;21.21;42.22
75656;BME280;64252;51.094;13.714;2023-05-10T10:27:33;99894.78;;;21.00;42.93
75656;BME280;64252;51.094;13.714;2023-05-10T10:35:32;99888.09;;;20.94;42.96
75656;BME280;64252;51.094;13.714;2023-05-10T10:38:00;99890.38;;;21.09;42.87
75656;BME280;64252;51.094;13.714;2023-05-10T10:40:32;99881.44;;;21.07;42.13
75656;BME280;64252;51.094;13.714;2023-05-10T10:43:24;99885.22;;;20.94;42.72
75656;BME280;64252;51.094;13.714;2023-05-10T10:46:16;99894.75;;;21.22;42.89
75656;BME280;64252;51.094;13.714;2023-05-10T10:48:50;99885.38;;;21.31;42.66
75656;BME280;64252;51.094;13.714;2023-05-10T10:51:37;99889.31;;;21.24;42.96
75656;BME280;64252;51.094;13.714;2023-05-10T10:54:11;99893.56;;;21.11;43.50
75656;BME280;64252;51.094;13.714;2023-05-10T10:56:37;99888.41;;;21.27;43.05
75656;BME280;64252;51.094;13.714;2023-05-10T10:59:03;99890.34;;;21.49;42.86
75656;BME280;64252;51.094;13.714;2023-05-10T11:01:35;99891.09;;;21.31;42.00
75656;BME280;64252;51.094;13.714;2023-05-10T11:08:57;99891.13;;;21.40;42.78
75656;BME280;64252;51.094;13.714;2023-05-10T11:11:22;99889.41;;;21.61;41.52
75656;BME280;64252;51.094;13.714;2023-05-10T11:13:48;99886.69;;;21.66;41.60
75656;BME280;64252;51.094;13.714;2023-05-10T11:16:15;99892.34;;;22.06;41.71
75656;BME280;64252;51.094;13.714;2023-05-10T11:18:52;99886.09;;;22.26;41.49
75656;BME280;64252;51.094;13.714;2023-05-10T11:21:18;99887.34;;;22.34;41.19
75656;BME280;64252;51.094;13.714;2023-05-10T11:26:12;99891.53;;;22.15;40.99
75656;BME280;64252;51.094;13.714;2023-05-10T11:28:42;99905.75;;;22.00;41.01
75656;BME280;64252;51.094;13.714;2023-05-10T11:31:07;99889.91;;;21.86;41.54
75656;BME280;64252;51.094;13.714;2023-05-10T11:33:54;99900.41;;;21.62;40.95
75656;BME280;64252;51.094;13.714;2023-05-10T11:36:22;99897.53;;;21.53;41.94
75656;BME280;64252;51.094;13.714;2023-05-10T11:38:49;99898.50;;;21.68;42.02
75656;BME280;64252;51.094;13.714;2023-05-10T11:41:17;99901.09;;;21.84;42.09
75656;BME280;64252;51.094;13.714;2023-05-10T11:43:46;99896.66;;;22.02;41.57
75656;BME280;64252;51.094;13.714;2023-05-10T11:46:13;99897.59;;;22.26;42.03
75656;BME280;64252;51.094;13.714;2023-05-10T11:48:39;99901.44;;;22.14;40.38
75656;BME280;64252;51.094;13.714;2023-05-10T11:51:06;99891.22;;;22.22;42.00
75656;BME280;64252;51.094;13.714;2023-05-10T11:53:32;99904.31;;;22.05;40.57
75656;BME280;64252;51.094;13.714;2023-05-10T11:56:07;99906.84;;;21.84;41.28
75656;BME280;64252;51.094;13.714;2023-05-10T11:58:33;99902.03;;;21.63;40.70
75656;BME280;64252;51.094;13.714;2023-05-10T12:01:00;99899.94;;;21.55;41.62
75656;BME280;64252;51.094;13.714;2023-05-10T12:03:26;99901.97;;;21.36;41.70
75656;BME280;64252;51.094;13.714;2023-05-10T12:05:52;99910.28;;;21.52;43.47
75656;BME280;64252;51.094;13.714;2023-05-10T12:08:27;99912.88;;;21.59;42.04
75656;BME280;64252;51.094;13.714;2023-05-10T12:11:04;99907.94;;;21.60;41.84
75656;BME280;64252;51.094;13.714;2023-05-10T12:13:30;99905.88;;;21.69;42.08
75656;BME280;64252;51.094;13.714;2023-05-10T12:15:58;99908.13;;;21.93;40.94
75656;BME280;64252;51.094;13.714;2023-05-10T12:18:24;99907.34;;;22.10;41.28
75656;BME280;64252;51.094;13.714;2023-05-10T12:20:54;99899.78;;;22.49;41.21
75656;BME280;64252;51.094;13.714;2023-05-10T12:23:20;99912.25;;;22.37;41.56
75656;BME280;64252;51.094;13.714;2023-05-10T12:25:46;99897.25;;;22.33;40.54
75656;BME280;64252;51.094;13.714;2023-05-10T12:28:12;99908.91;;;22.48;41.32
75656;BME280;64252;51.094;13.714;2023-05-10T12:30:38;99910.00;;;22.59;39.64
75656;BME280;64252;51.094;13.714;2023-05-10T12:33:09;99915.50;;;22.12;40.07
75656;BME280;64252;51.094;13.714;2023-05-10T12:35:52;99914.34;;;22.18;40.71
75656;BME280;64252;51.094;13.714;2023-05-10T12:38:38;99907.44;;;22.52;40.59
75656;BME280;64252;51.094;13.714;2023-05-10T12:41:06;99910.00;;;22.59;40.16
75656;BME280;64252;51.094;13.714;2023-05-10T12:43:33;99908.41;;;22.58;40.62
75656;BME280;64252;51.094;13.714;2023-05-10T12:46:06;99915.81;;;22.41;39.37
75656;BME280;64252;51.094;13.714;2023-05-10T12:48:32;99920.91;;;22.37;40.42
75656;BME280;64252;51.094;13.714;2023-05-10T12:50:59;99919.63;;;22.38;39.98
75656;BME280;64252;51.094;13.714;2023-05-10T12:53:25;99918.00;;;22.46;39.67
75656;BME280;64252;51.094;13.714;2023-05-10T12:55:52;99922.63;;;22.53;41.14
75656;BME280;64252;51.094;13.714;2023-05-10T12:58:18;99927.75;;;22.49;40.14
75656;BME280;64252;51.094;13.714;2023-05-10T13:00:43;99924.41;;;22.50;39.66
75656;BME280;64252;51.094;13.714;2023-05-10T13:03:09;99926.50;;;22.41;40.95
75656;BME280;64252;51.094;13.714;2023-05-10T13:05:36;99932.09;;;22.44;40.08
75656;BME280;64252;51.094;13.714;2023-05-10T13:08:01;99925.16;;;22.69;39.29
75656;BME280;64252;51.094;13.714;2023-05-10T13:10:30;99926.28;;;22.62;39.38
75656;BME280;64252;51.094;13.714;2023-05-10T13:12:56;99933.28;;;22.89;40.34
75656;BME280;64252;51.094;13.714;2023-05-10T13:15:22;99934.72;;;22.84;39.07
75656;BME280;64252;51.094;13.714;2023-05-10T13:17:47;99933.94;;;22.93;39.42
75656;BME280;64252;51.094;13.714;2023-05-10T13:20:13;99921.13;;;22.85;40.75
75656;BME280;64252;51.094;13.714;2023-05-10T13:22:40;99929.84;;;23.08;40.65
75656;BME280;64252;51.094;13.714;2023-05-10T13:25:06;99930.63;;;22.58;39.81
75656;BME280;64252;51.094;13.714;2023-05-10T13:27:33;99934.31;;;22.49;39.14
75656;BME280;64252;51.094;13.714;2023-05-10T13:29:59;99933.72;;;22.27;40.65